Newport, Ohio
Current Conditions -  °F | °C
As of 2:53 PM on Thursday 25 Dec 2014 (Local Time) from KPKB Reporting Station
Overcast Overcast  
Wind Chill: 36°   Ceiling: 3500
Heat Index: 42°   Visibility: 10mi
Dew Point: 32°   Wind: 10mph
Humidity: 67%   Direction: 230°SW
Pressure: 30.15"   Gusts: NA
Location:  39.39°N, 81.23°W
Report Text: KPKB 251953Z 23009KT 10SM OVC035 06/00 A3015 RMK AO2 SLP213 T00560000
Loading
Personal Weather Stations






























Interactive Weather Map New forecast layout! Learn more

10-Day Weather Forecast

Advertisements
Track Severe Weather on mobile